sensor_id;sensor_type;location;lat;lon;timestamp;P1;durP1;ratioP1;P2;durP2;ratioP2
10041;SDS011;5061;49.068;12.058;2023-01-10T00:00:42;1.50;;;1.40;;
10041;SDS011;5061;49.068;12.058;2023-01-10T00:04:03;1.47;;;1.37;;
10041;SDS011;5061;49.068;12.058;2023-01-10T00:07:24;2.93;;;2.40;;
10041;SDS011;5061;49.068;12.058;2023-01-10T00:10:44;2.83;;;2.10;;
10041;SDS011;5061;49.068;12.058;2023-01-10T00:14:06;1.63;;;1.43;;
10041;SDS011;5061;49.068;12.058;2023-01-10T00:17:27;1.57;;;1.20;;
10041;SDS011;5061;49.068;12.058;2023-01-10T00:20:48;1.83;;;1.40;;
10041;SDS011;5061;49.068;12.058;2023-01-10T00:24:09;1.60;;;1.50;;
10041;SDS011;5061;49.068;12.058;2023-01-10T00:27:39;1.30;;;1.20;;
10041;SDS011;5061;49.068;12.058;2023-01-10T00:31:00;1.30;;;1.10;;
10041;SDS011;5061;49.068;12.058;2023-01-10T00:34:25;1.63;;;1.30;;
10041;SDS011;5061;49.068;12.058;2023-01-10T00:37:46;1.30;;;1.20;;
10041;SDS011;5061;49.068;12.058;2023-01-10T00:41:06;1.40;;;1.30;;
10041;SDS011;5061;49.068;12.058;2023-01-10T00:44:47;3.33;;;1.60;;
10041;SDS011;5061;49.068;12.058;2023-01-10T00:48:08;1.70;;;1.30;;
10041;SDS011;5061;49.068;12.058;2023-01-10T00:51:28;2.20;;;1.33;;
10041;SDS011;5061;49.068;12.058;2023-01-10T00:54:49;1.10;;;1.00;;
10041;SDS011;5061;49.068;12.058;2023-01-10T00:58:09;4.10;;;1.47;;
10041;SDS011;5061;49.068;12.058;2023-01-10T01:01:31;3.33;;;1.33;;
10041;SDS011;5061;49.068;12.058;2023-01-10T01:04:52;4.03;;;1.73;;
10041;SDS011;5061;49.068;12.058;2023-01-10T01:08:13;1.53;;;1.40;;
10041;SDS011;5061;49.068;12.058;2023-01-10T01:11:34;5.13;;;1.80;;
10041;SDS011;5061;49.068;12.058;2023-01-10T01:14:55;1.77;;;1.47;;
10041;SDS011;5061;49.068;12.058;2023-01-10T01:18:17;2.80;;;1.20;;
10041;SDS011;5061;49.068;12.058;2023-01-10T01:21:39;3.97;;;1.53;;
10041;SDS011;5061;49.068;12.058;2023-01-10T01:25:00;2.40;;;1.60;;
10041;SDS011;5061;49.068;12.058;2023-01-10T01:28:23;4.73;;;1.97;;
10041;SDS011;5061;49.068;12.058;2023-01-10T01:31:44;1.97;;;1.50;;
10041;SDS011;5061;49.068;12.058;2023-01-10T01:35:06;2.63;;;1.33;;
10041;SDS011;5061;49.068;12.058;2023-01-10T01:38:28;2.60;;;2.00;;
10041;SDS011;5061;49.068;12.058;2023-01-10T01:41:48;1.90;;;1.80;;
10041;SDS011;5061;49.068;12.058;2023-01-10T01:48:42;1.50;;;1.40;;
10041;SDS011;5061;49.068;12.058;2023-01-10T01:52:05;2.13;;;1.60;;
10041;SDS011;5061;49.068;12.058;2023-01-10T01:55:35;1.70;;;1.60;;
10041;SDS011;5061;49.068;12.058;2023-01-10T01:59:14;2.47;;;2.23;;
10041;SDS011;5061;49.068;12.058;2023-01-10T02:02:49;2.00;;;1.90;;
10041;SDS011;5061;49.068;12.058;2023-01-10T02:06:12;3.60;;;2.30;;
10041;SDS011;5061;49.068;12.058;2023-01-10T02:09:39;2.27;;;2.07;;
10041;SDS011;5061;49.068;12.058;2023-01-10T02:13:13;5.40;;;1.93;;
10041;SDS011;5061;49.068;12.058;2023-01-10T02:16:35;2.00;;;1.70;;
10041;SDS011;5061;49.068;12.058;2023-01-10T02:19:56;1.80;;;1.70;;
10041;SDS011;5061;49.068;12.058;2023-01-10T02:30:25;3.57;;;2.17;;
10041;SDS011;5061;49.068;12.058;2023-01-10T02:45:16;2.50;;;2.30;;
10041;SDS011;5061;49.068;12.058;2023-01-10T02:48:44;2.60;;;2.30;;
10041;SDS011;5061;49.068;12.058;2023-01-10T02:52:04;3.30;;;3.00;;
10041;SDS011;5061;49.068;12.058;2023-01-10T02:55:27;2.50;;;2.30;;
10041;SDS011;5061;49.068;12.058;2023-01-10T03:09:44;3.37;;;2.20;;
10041;SDS011;5061;49.068;12.058;2023-01-10T03:14:11;2.20;;;2.10;;
10041;SDS011;5061;49.068;12.058;2023-01-10T03:17:03;1.80;;;1.70;;
10041;SDS011;5061;49.068;12.058;2023-01-10T03:20:27;2.17;;;1.90;;
10041;SDS011;5061;49.068;12.058;2023-01-10T03:23:52;1.90;;;1.80;;
10041;SDS011;5061;49.068;12.058;2023-01-10T03:31:01;2.90;;;2.23;;
10041;SDS011;5061;49.068;12.058;2023-01-10T03:34:35;2.20;;;2.00;;
10041;SDS011;5061;49.068;12.058;2023-01-10T03:37:57;2.50;;;1.93;;
10041;SDS011;5061;49.068;12.058;2023-01-10T03:48:18;2.50;;;2.30;;
10041;SDS011;5061;49.068;12.058;2023-01-10T03:51:42;2.73;;;2.10;;
10041;SDS011;5061;49.068;12.058;2023-01-10T03:55:04;3.27;;;2.17;;
10041;SDS011;5061;49.068;12.058;2023-01-10T03:58:27;1.93;;;1.83;;
10041;SDS011;5061;49.068;12.058;2023-01-10T04:01:48;2.90;;;2.60;;
10041;SDS011;5061;49.068;12.058;2023-01-10T04:05:09;2.73;;;2.10;;
10041;SDS011;5061;49.068;12.058;2023-01-10T04:08:31;2.30;;;2.10;;
10041;SDS011;5061;49.068;12.058;2023-01-10T04:11:51;2.40;;;2.20;;
10041;SDS011;5061;49.068;12.058;2023-01-10T04:15:12;3.07;;;2.00;;
10041;SDS011;5061;49.068;12.058;2023-01-10T04:18:32;2.67;;;2.43;;
10041;SDS011;5061;49.068;12.058;2023-01-10T04:21:53;2.83;;;2.57;;
10041;SDS011;5061;49.068;12.058;2023-01-10T04:25:14;2.33;;;2.13;;
10041;SDS011;5061;49.068;12.058;2023-01-10T04:28:35;2.50;;;2.30;;
10041;SDS011;5061;49.068;12.058;2023-01-10T04:31:55;3.40;;;2.87;;
10041;SDS011;5061;49.068;12.058;2023-01-10T04:35:16;3.97;;;2.80;;
10041;SDS011;5061;49.068;12.058;2023-01-10T04:38:36;2.23;;;2.03;;
10041;SDS011;5061;49.068;12.058;2023-01-10T04:41:57;3.87;;;2.60;;
10041;SDS011;5061;49.068;12.058;2023-01-10T04:45:18;2.50;;;2.17;;
10041;SDS011;5061;49.068;12.058;2023-01-10T04:48:40;2.13;;;2.03;;
10041;SDS011;5061;49.068;12.058;2023-01-10T04:52:01;2.50;;;2.00;;
10041;SDS011;5061;49.068;12.058;2023-01-10T04:55:21;3.67;;;1.93;;
10041;SDS011;5061;49.068;12.058;2023-01-10T04:58:42;2.10;;;1.90;;
10041;SDS011;5061;49.068;12.058;2023-01-10T05:02:03;3.17;;;2.50;;
10041;SDS011;5061;49.068;12.058;2023-01-10T05:05:24;4.23;;;3.00;;
10041;SDS011;5061;49.068;12.058;2023-01-10T05:08:45;2.30;;;2.10;;
10041;SDS011;5061;49.068;12.058;2023-01-10T05:12:07;5.40;;;3.47;;
10041;SDS011;5061;49.068;12.058;2023-01-10T05:15:28;7.00;;;4.27;;
10041;SDS011;5061;49.068;12.058;2023-01-10T05:18:48;4.30;;;2.97;;
10041;SDS011;5061;49.068;12.058;2023-01-10T05:22:09;3.53;;;2.83;;
10041;SDS011;5061;49.068;12.058;2023-01-10T05:25:30;2.93;;;2.70;;
10041;SDS011;5061;49.068;12.058;2023-01-10T05:28:51;2.80;;;2.60;;
10041;SDS011;5061;49.068;12.058;2023-01-10T05:32:11;3.67;;;3.00;;
10041;SDS011;5061;49.068;12.058;2023-01-10T05:35:32;2.87;;;2.60;;
10041;SDS011;5061;49.068;12.058;2023-01-10T05:38:53;3.20;;;2.90;;
10041;SDS011;5061;49.068;12.058;2023-01-10T05:42:13;3.07;;;2.47;;
10041;SDS011;5061;49.068;12.058;2023-01-10T05:45:34;3.57;;;2.90;;
10041;SDS011;5061;49.068;12.058;2023-01-10T05:48:55;2.80;;;2.60;;
10041;SDS011;5061;49.068;12.058;2023-01-10T05:52:15;3.70;;;3.33;;
10041;SDS011;5061;49.068;12.058;2023-01-10T05:55:36;4.30;;;3.20;;
10041;SDS011;5061;49.068;12.058;2023-01-10T05:58:56;3.73;;;3.03;;
10041;SDS011;5061;49.068;12.058;2023-01-10T06:02:17;3.40;;;3.10;;
10041;SDS011;5061;49.068;12.058;2023-01-10T06:05:37;4.37;;;2.97;;
10041;SDS011;5061;49.068;12.058;2023-01-10T06:08:58;6.43;;;3.40;;
10041;SDS011;5061;49.068;12.058;2023-01-10T06:12:19;5.87;;;3.20;;
10041;SDS011;5061;49.068;12.058;2023-01-10T06:15:40;3.67;;;3.30;;
10041;SDS011;5061;49.068;12.058;2023-01-10T06:19:01;4.07;;;3.67;;
10041;SDS011;5061;49.068;12.058;2023-01-10T06:22:22;4.47;;;4.07;;
10041;SDS011;5061;49.068;12.058;2023-01-10T06:25:43;4.40;;;3.47;;
10041;SDS011;5061;49.068;12.058;2023-01-10T06:29:03;3.80;;;3.40;;
10041;SDS011;5061;49.068;12.058;2023-01-10T06:32:24;4.37;;;3.73;;
10041;SDS011;5061;49.068;12.058;2023-01-10T06:35:44;3.90;;;3.50;;
10041;SDS011;5061;49.068;12.058;2023-01-10T06:39:07;3.40;;;3.10;;
10041;SDS011;5061;49.068;12.058;2023-01-10T06:42:27;7.03;;;4.33;;
10041;SDS011;5061;49.068;12.058;2023-01-10T06:45:48;4.20;;;3.77;;
10041;SDS011;5061;49.068;12.058;2023-01-10T06:49:08;3.63;;;3.33;;
10041;SDS011;5061;49.068;12.058;2023-01-10T06:52:29;4.57;;;4.17;;
10041;SDS011;5061;49.068;12.058;2023-01-10T06:55:50;9.77;;;3.73;;
10041;SDS011;5061;49.068;12.058;2023-01-10T06:59:10;3.90;;;3.53;;
10041;SDS011;5061;49.068;12.058;2023-01-10T07:02:31;4.53;;;4.07;;
10041;SDS011;5061;49.068;12.058;2023-01-10T07:05:52;5.03;;;3.83;;
10041;SDS011;5061;49.068;12.058;2023-01-10T07:09:12;5.83;;;4.00;;
10041;SDS011;5061;49.068;12.058;2023-01-10T07:12:33;4.63;;;4.03;;
10041;SDS011;5061;49.068;12.058;2023-01-10T07:16:03;5.20;;;4.07;;
10041;SDS011;5061;49.068;12.058;2023-01-10T07:19:25;5.30;;;4.43;;
10041;SDS011;5061;49.068;12.058;2023-01-10T07:22:51;5.13;;;4.20;;
10041;SDS011;5061;49.068;12.058;2023-01-10T07:26:17;5.57;;;4.07;;
10041;SDS011;5061;49.068;12.058;2023-01-10T07:29:38;5.43;;;4.53;;
10041;SDS011;5061;49.068;12.058;2023-01-10T07:32:59;7.97;;;4.37;;
10041;SDS011;5061;49.068;12.058;2023-01-10T07:36:22;7.63;;;4.87;;
10041;SDS011;5061;49.068;12.058;2023-01-10T07:39:42;6.70;;;4.50;;
10041;SDS011;5061;49.068;12.058;2023-01-10T07:43:03;5.53;;;4.63;;
10041;SDS011;5061;49.068;12.058;2023-01-10T07:46:24;4.93;;;4.17;;
10041;SDS011;5061;49.068;12.058;2023-01-10T07:49:45;12.33;;;4.40;;
10041;SDS011;5061;49.068;12.058;2023-01-10T07:53:06;5.73;;;4.57;;
10041;SDS011;5061;49.068;12.058;2023-01-10T07:56:27;5.83;;;4.50;;
10041;SDS011;5061;49.068;12.058;2023-01-10T07:59:48;6.53;;;4.57;;
10041;SDS011;5061;49.068;12.058;2023-01-10T08:03:09;6.00;;;4.50;;
10041;SDS011;5061;49.068;12.058;2023-01-10T08:06:30;9.97;;;5.40;;
10041;SDS011;5061;49.068;12.058;2023-01-10T08:09:50;5.63;;;4.83;;
10041;SDS011;5061;49.068;12.058;2023-01-10T08:13:11;8.80;;;4.97;;
10041;SDS011;5061;49.068;12.058;2023-01-10T08:16:31;7.27;;;5.37;;
10041;SDS011;5061;49.068;12.058;2023-01-10T08:19:52;8.83;;;4.90;;
10041;SDS011;5061;49.068;12.058;2023-01-10T08:23:13;13.70;;;5.13;;
10041;SDS011;5061;49.068;12.058;2023-01-10T08:26:34;12.53;;;6.10;;
10041;SDS011;5061;49.068;12.058;2023-01-10T08:29:54;9.50;;;5.30;;
10041;SDS011;5061;49.068;12.058;2023-01-10T08:33:15;8.50;;;5.00;;
10041;SDS011;5061;49.068;12.058;2023-01-10T08:36:35;10.17;;;5.33;;
10041;SDS011;5061;49.068;12.058;2023-01-10T08:39:56;7.03;;;6.00;;
10041;SDS011;5061;49.068;12.058;2023-01-10T08:43:17;7.90;;;5.67;;
10041;SDS011;5061;49.068;12.058;2023-01-10T08:46:37;10.40;;;5.43;;
10041;SDS011;5061;49.068;12.058;2023-01-10T08:49:58;6.77;;;5.17;;
10041;SDS011;5061;49.068;12.058;2023-01-10T08:53:18;9.27;;;5.50;;
10041;SDS011;5061;49.068;12.058;2023-01-10T08:56:39;10.23;;;5.47;;
10041;SDS011;5061;49.068;12.058;2023-01-10T09:00:00;7.30;;;5.40;;
10041;SDS011;5061;49.068;12.058;2023-01-10T09:03:20;8.23;;;5.17;;
10041;SDS011;5061;49.068;12.058;2023-01-10T09:06:41;7.60;;;5.10;;
10041;SDS011;5061;49.068;12.058;2023-01-10T09:10:02;6.73;;;5.00;;
10041;SDS011;5061;49.068;12.058;2023-01-10T09:13:23;8.37;;;5.00;;
10041;SDS011;5061;49.068;12.058;2023-01-10T09:16:44;7.13;;;4.20;;
10041;SDS011;5061;49.068;12.058;2023-01-10T09:20:05;5.60;;;4.30;;
10041;SDS011;5061;49.068;12.058;2023-01-10T09:23:29;4.70;;;3.80;;
10041;SDS011;5061;49.068;12.058;2023-01-10T09:26:49;7.33;;;3.80;;
10041;SDS011;5061;49.068;12.058;2023-01-10T09:30:10;7.90;;;4.00;;
10041;SDS011;5061;49.068;12.058;2023-01-10T09:33:31;8.40;;;5.10;;
10041;SDS011;5061;49.068;12.058;2023-01-10T09:36:52;7.80;;;3.80;;
10041;SDS011;5061;49.068;12.058;2023-01-10T09:40:16;5.03;;;3.93;;
10041;SDS011;5061;49.068;12.058;2023-01-10T09:43:53;6.30;;;3.60;;
10041;SDS011;5061;49.068;12.058;2023-01-10T09:54:40;5.60;;;3.40;;
10041;SDS011;5061;49.068;12.058;2023-01-10T09:58:12;8.07;;;3.17;;
10041;SDS011;5061;49.068;12.058;2023-01-10T10:01:35;9.80;;;4.47;;
10041;SDS011;5061;49.068;12.058;2023-01-10T10:05:10;5.47;;;3.60;;
10041;SDS011;5061;49.068;12.058;2023-01-10T10:08:41;4.43;;;2.87;;
10041;SDS011;5061;49.068;12.058;2023-01-10T10:15:48;4.70;;;3.10;;
10041;SDS011;5061;49.068;12.058;2023-01-10T10:23:09;3.83;;;2.77;;
10041;SDS011;5061;49.068;12.058;2023-01-10T10:26:36;10.33;;;3.40;;
10041;SDS011;5061;49.068;12.058;2023-01-10T10:30:11;7.97;;;3.43;;
10041;SDS011;5061;49.068;12.058;2023-01-10T10:37:26;16.23;;;3.80;;
10041;SDS011;5061;49.068;12.058;2023-01-10T10:41:12;4.03;;;3.20;;
10041;SDS011;5061;49.068;12.058;2023-01-10T10:44:47;13.70;;;3.40;;
10041;SDS011;5061;49.068;12.058;2023-01-10T10:48:15;7.03;;;3.70;;
10041;SDS011;5061;49.068;12.058;2023-01-10T10:51:45;6.50;;;3.30;;
10041;SDS011;5061;49.068;12.058;2023-01-10T10:55:14;7.60;;;3.97;;
10041;SDS011;5061;49.068;12.058;2023-01-10T10:58:36;9.03;;;3.50;;
10041;SDS011;5061;49.068;12.058;2023-01-10T11:02:00;6.70;;;3.60;;
10041;SDS011;5061;49.068;12.058;2023-01-10T11:05:23;7.23;;;3.80;;
10041;SDS011;5061;49.068;12.058;2023-01-10T11:09:03;5.23;;;2.80;;
10041;SDS011;5061;49.068;12.058;2023-01-10T11:12:28;4.60;;;3.40;;
10041;SDS011;5061;49.068;12.058;2023-01-10T11:15:51;9.07;;;3.03;;
10041;SDS011;5061;49.068;12.058;2023-01-10T11:19:16;6.90;;;3.30;;
10041;SDS011;5061;49.068;12.058;2023-01-10T11:22:47;6.60;;;3.50;;
10041;SDS011;5061;49.068;12.058;2023-01-10T11:26:21;7.80;;;3.60;;
10041;SDS011;5061;49.068;12.058;2023-01-10T11:29:48;6.53;;;3.43;;
10041;SDS011;5061;49.068;12.058;2023-01-10T11:33:17;9.83;;;3.43;;
10041;SDS011;5061;49.068;12.058;2023-01-10T11:43:37;10.00;;;4.20;;
10041;SDS011;5061;49.068;12.058;2023-01-10T11:47:01;5.87;;;3.53;;
10041;SDS011;5061;49.068;12.058;2023-01-10T11:53:46;8.03;;;3.00;;
10041;SDS011;5061;49.068;12.058;2023-01-10T11:57:17;9.33;;;4.70;;
10041;SDS011;5061;49.068;12.058;2023-01-10T12:00:44;8.60;;;3.70;;
10041;SDS011;5061;49.068;12.058;2023-01-10T12:04:06;13.83;;;5.90;;
10041;SDS011;5061;49.068;12.058;2023-01-10T12:11:28;8.13;;;3.47;;
10041;SDS011;5061;49.068;12.058;2023-01-10T12:14:51;11.50;;;3.33;;
10041;SDS011;5061;49.068;12.058;2023-01-10T12:18:13;4.30;;;3.17;;
10041;SDS011;5061;49.068;12.058;2023-01-10T12:21:37;6.13;;;2.93;;
10041;SDS011;5061;49.068;12.058;2023-01-10T12:24:59;7.03;;;3.00;;
10041;SDS011;5061;49.068;12.058;2023-01-10T12:28:23;5.93;;;2.80;;
10041;SDS011;5061;49.068;12.058;2023-01-10T12:31:50;10.33;;;2.70;;
10041;SDS011;5061;49.068;12.058;2023-01-10T12:35:22;6.80;;;2.73;;
10041;SDS011;5061;49.068;12.058;2023-01-10T12:38:59;5.33;;;3.17;;
10041;SDS011;5061;49.068;12.058;2023-01-10T12:42:44;7.83;;;3.50;;
10041;SDS011;5061;49.068;12.058;2023-01-10T12:46:39;4.13;;;2.33;;
10041;SDS011;5061;49.068;12.058;2023-01-10T12:50:32;6.40;;;2.30;;
10041;SDS011;5061;49.068;12.058;2023-01-10T12:54:11;3.73;;;2.47;;
10041;SDS011;5061;49.068;12.058;2023-01-10T12:57:35;7.10;;;3.03;;
10041;SDS011;5061;49.068;12.058;2023-01-10T13:00:58;10.27;;;3.00;;
10041;SDS011;5061;49.068;12.058;2023-01-10T13:04:20;6.30;;;2.30;;
10041;SDS011;5061;49.068;12.058;2023-01-10T13:07:43;4.53;;;2.43;;
10041;SDS011;5061;49.068;12.058;2023-01-10T13:11:06;4.40;;;2.57;;
10041;SDS011;5061;49.068;12.058;2023-01-10T13:14:34;4.50;;;2.57;;
10041;SDS011;5061;49.068;12.058;2023-01-10T13:21:44;4.60;;;2.30;;
10041;SDS011;5061;49.068;12.058;2023-01-10T13:25:17;3.87;;;2.07;;
10041;SDS011;5061;49.068;12.058;2023-01-10T13:28:53;5.43;;;2.13;;
10041;SDS011;5061;49.068;12.058;2023-01-10T13:32:21;9.33;;;1.70;;
10041;SDS011;5061;49.068;12.058;2023-01-10T13:35:44;3.47;;;1.93;;
10041;SDS011;5061;49.068;12.058;2023-01-10T13:43:23;5.00;;;2.07;;
10041;SDS011;5061;49.068;12.058;2023-01-10T13:46:52;9.93;;;2.40;;
10041;SDS011;5061;49.068;12.058;2023-01-10T13:53:59;6.67;;;2.17;;
10041;SDS011;5061;49.068;12.058;2023-01-10T13:57:50;2.90;;;1.43;;
10041;SDS011;5061;49.068;12.058;2023-01-10T14:05:17;2.63;;;1.60;;
10041;SDS011;5061;49.068;12.058;2023-01-10T14:08:38;2.77;;;1.67;;
10041;SDS011;5061;49.068;12.058;2023-01-10T14:12:00;7.77;;;1.50;;
10041;SDS011;5061;49.068;12.058;2023-01-10T14:18:47;12.07;;;1.37;;
10041;SDS011;5061;49.068;12.058;2023-01-10T14:22:17;8.03;;;2.93;;
10041;SDS011;5061;49.068;12.058;2023-01-10T14:25:53;13.33;;;2.40;;
10041;SDS011;5061;49.068;12.058;2023-01-10T14:29:15;6.53;;;1.70;;
10041;SDS011;5061;49.068;12.058;2023-01-10T14:32:38;4.00;;;1.47;;
10041;SDS011;5061;49.068;12.058;2023-01-10T14:36:06;4.93;;;1.73;;
10041;SDS011;5061;49.068;12.058;2023-01-10T14:39:33;1.90;;;1.30;;
10041;SDS011;5061;49.068;12.058;2023-01-10T14:42:54;5.97;;;2.20;;
10041;SDS011;5061;49.068;12.058;2023-01-10T14:46:23;3.10;;;1.70;;
10041;SDS011;5061;49.068;12.058;2023-01-10T14:50:02;2.93;;;1.27;;
10041;SDS011;5061;49.068;12.058;2023-01-10T14:53:24;4.53;;;1.50;;
10041;SDS011;5061;49.068;12.058;2023-01-10T14:56:47;6.00;;;1.50;;
10041;SDS011;5061;49.068;12.058;2023-01-10T15:00:12;3.77;;;1.80;;
10041;SDS011;5061;49.068;12.058;2023-01-10T15:03:35;4.03;;;1.70;;
10041;SDS011;5061;49.068;12.058;2023-01-10T15:07:11;5.13;;;1.47;;
10041;SDS011;5061;49.068;12.058;2023-01-10T15:10:37;3.30;;;1.57;;
10041;SDS011;5061;49.068;12.058;2023-01-10T15:14:03;2.93;;;1.70;;
10041;SDS011;5061;49.068;12.058;2023-01-10T15:17:27;4.20;;;1.30;;
10041;SDS011;5061;49.068;12.058;2023-01-10T15:20:47;4.87;;;1.90;;
10041;SDS011;5061;49.068;12.058;2023-01-10T15:27:48;6.07;;;2.03;;
10041;SDS011;5061;49.068;12.058;2023-01-10T15:31:10;6.27;;;1.40;;
10041;SDS011;5061;49.068;12.058;2023-01-10T15:34:38;4.70;;;1.80;;
10041;SDS011;5061;49.068;12.058;2023-01-10T15:38:23;2.40;;;1.37;;
10041;SDS011;5061;49.068;12.058;2023-01-10T15:41:49;6.60;;;1.93;;
10041;SDS011;5061;49.068;12.058;2023-01-10T15:45:26;6.30;;;1.80;;
10041;SDS011;5061;49.068;12.058;2023-01-10T15:48:57;4.87;;;1.60;;
10041;SDS011;5061;49.068;12.058;2023-01-10T15:52:21;1.83;;;1.13;;
10041;SDS011;5061;49.068;12.058;2023-01-10T15:55:44;1.90;;;1.30;;
10041;SDS011;5061;49.068;12.058;2023-01-10T16:02:51;1.90;;;1.20;;
10041;SDS011;5061;49.068;12.058;2023-01-10T16:09:54;1.63;;;1.13;;
10041;SDS011;5061;49.068;12.058;2023-01-10T16:13:15;2.40;;;1.20;;
10041;SDS011;5061;49.068;12.058;2023-01-10T16:16:46;3.73;;;1.40;;
10041;SDS011;5061;49.068;12.058;2023-01-10T16:20:10;2.70;;;1.10;;
10041;SDS011;5061;49.068;12.058;2023-01-10T16:23:33;3.93;;;1.10;;
10041;SDS011;5061;49.068;12.058;2023-01-10T16:26:58;4.03;;;1.00;;
10041;SDS011;5061;49.068;12.058;2023-01-10T16:30:26;1.73;;;1.00;;
10041;SDS011;5061;49.068;12.058;2023-01-10T16:33:48;1.43;;;1.00;;
10041;SDS011;5061;49.068;12.058;2023-01-10T16:37:09;0.87;;;0.80;;
10041;SDS011;5061;49.068;12.058;2023-01-10T16:40:33;1.53;;;1.23;;
10041;SDS011;5061;49.068;12.058;2023-01-10T16:43:57;1.03;;;0.93;;
10041;SDS011;5061;49.068;12.058;2023-01-10T16:47:17;2.20;;;1.10;;
10041;SDS011;5061;49.068;12.058;2023-01-10T16:50:39;1.63;;;1.03;;
10041;SDS011;5061;49.068;12.058;2023-01-10T16:54:00;2.10;;;1.07;;
10041;SDS011;5061;49.068;12.058;2023-01-10T16:57:20;2.47;;;1.30;;
10041;SDS011;5061;49.068;12.058;2023-01-10T17:00:44;1.90;;;1.40;;
10041;SDS011;5061;49.068;12.058;2023-01-10T17:04:06;2.50;;;1.40;;
10041;SDS011;5061;49.068;12.058;2023-01-10T17:07:28;2.47;;;1.43;;
10041;SDS011;5061;49.068;12.058;2023-01-10T17:10:58;1.13;;;1.00;;
10041;SDS011;5061;49.068;12.058;2023-01-10T17:14:22;1.20;;;1.10;;
10041;SDS011;5061;49.068;12.058;2023-01-10T17:17:42;1.43;;;1.23;;
10041;SDS011;5061;49.068;12.058;2023-01-10T17:21:04;1.40;;;1.00;;
10041;SDS011;5061;49.068;12.058;2023-01-10T17:24:25;1.50;;;1.03;;
10041;SDS011;5061;49.068;12.058;2023-01-10T17:27:46;1.83;;;0.80;;
10041;SDS011;5061;49.068;12.058;2023-01-10T17:31:07;2.00;;;0.93;;
10041;SDS011;5061;49.068;12.058;2023-01-10T17:34:28;3.50;;;1.37;;
10041;SDS011;5061;49.068;12.058;2023-01-10T17:37:50;1.43;;;1.00;;
10041;SDS011;5061;49.068;12.058;2023-01-10T17:41:10;1.63;;;1.20;;
10041;SDS011;5061;49.068;12.058;2023-01-10T17:44:31;3.33;;;1.23;;
10041;SDS011;5061;49.068;12.058;2023-01-10T17:47:51;1.63;;;1.23;;
10041;SDS011;5061;49.068;12.058;2023-01-10T17:51:12;1.20;;;0.90;;
10041;SDS011;5061;49.068;12.058;2023-01-10T17:54:33;1.53;;;1.10;;
10041;SDS011;5061;49.068;12.058;2023-01-10T17:57:56;1.40;;;1.20;;
10041;SDS011;5061;49.068;12.058;2023-01-10T18:01:18;2.20;;;1.37;;
10041;SDS011;5061;49.068;12.058;2023-01-10T18:04:41;1.20;;;1.03;;
10041;SDS011;5061;49.068;12.058;2023-01-10T18:08:02;1.30;;;1.10;;
10041;SDS011;5061;49.068;12.058;2023-01-10T18:11:24;3.47;;;1.40;;
10041;SDS011;5061;49.068;12.058;2023-01-10T18:14:47;2.37;;;1.37;;
10041;SDS011;5061;49.068;12.058;2023-01-10T18:18:09;3.27;;;2.03;;
10041;SDS011;5061;49.068;12.058;2023-01-10T18:21:32;2.93;;;1.50;;
10041;SDS011;5061;49.068;12.058;2023-01-10T18:24:53;1.30;;;1.20;;
10041;SDS011;5061;49.068;12.058;2023-01-10T18:28:15;2.43;;;1.50;;
10041;SDS011;5061;49.068;12.058;2023-01-10T18:31:35;2.20;;;1.30;;
10041;SDS011;5061;49.068;12.058;2023-01-10T18:34:56;1.53;;;1.30;;
10041;SDS011;5061;49.068;12.058;2023-01-10T18:38:16;1.63;;;1.43;;
10041;SDS011;5061;49.068;12.058;2023-01-10T18:41:38;1.80;;;1.20;;
10041;SDS011;5061;49.068;12.058;2023-01-10T18:44:58;1.53;;;1.43;;
10041;SDS011;5061;49.068;12.058;2023-01-10T18:48:19;1.97;;;1.60;;
10041;SDS011;5061;49.068;12.058;2023-01-10T18:51:41;1.63;;;1.20;;
10041;SDS011;5061;49.068;12.058;2023-01-10T18:55:01;1.93;;;1.47;;
10041;SDS011;5061;49.068;12.058;2023-01-10T18:58:23;2.97;;;1.57;;
10041;SDS011;5061;49.068;12.058;2023-01-10T19:01:44;5.23;;;1.70;;
10041;SDS011;5061;49.068;12.058;2023-01-10T19:05:05;2.90;;;2.13;;
10041;SDS011;5061;49.068;12.058;2023-01-10T19:08:28;4.83;;;2.27;;
10041;SDS011;5061;49.068;12.058;2023-01-10T19:11:59;4.03;;;2.33;;
10041;SDS011;5061;49.068;12.058;2023-01-10T19:15:20;3.20;;;2.30;;
10041;SDS011;5061;49.068;12.058;2023-01-10T19:18:41;5.10;;;3.10;;
10041;SDS011;5061;49.068;12.058;2023-01-10T19:22:04;3.40;;;2.20;;
10041;SDS011;5061;49.068;12.058;2023-01-10T19:25:24;5.50;;;2.77;;
10041;SDS011;5061;49.068;12.058;2023-01-10T19:28:46;6.40;;;2.50;;
10041;SDS011;5061;49.068;12.058;2023-01-10T19:32:07;5.73;;;3.13;;
10041;SDS011;5061;49.068;12.058;2023-01-10T19:35:27;3.90;;;2.43;;
10041;SDS011;5061;49.068;12.058;2023-01-10T19:38:55;2.83;;;2.40;;
10041;SDS011;5061;49.068;12.058;2023-01-10T19:42:17;3.70;;;2.37;;
10041;SDS011;5061;49.068;12.058;2023-01-10T19:45:39;4.20;;;2.23;;
10041;SDS011;5061;49.068;12.058;2023-01-10T19:49:00;4.90;;;2.33;;
10041;SDS011;5061;49.068;12.058;2023-01-10T19:52:26;2.60;;;2.20;;
10041;SDS011;5061;49.068;12.058;2023-01-10T19:55:47;3.80;;;2.30;;
10041;SDS011;5061;49.068;12.058;2023-01-10T19:59:08;3.07;;;2.40;;
10041;SDS011;5061;49.068;12.058;2023-01-10T20:02:29;2.87;;;2.00;;
10041;SDS011;5061;49.068;12.058;2023-01-10T20:05:49;6.00;;;2.70;;
10041;SDS011;5061;49.068;12.058;2023-01-10T20:09:11;3.13;;;2.47;;
10041;SDS011;5061;49.068;12.058;2023-01-10T20:12:33;2.23;;;2.00;;
10041;SDS011;5061;49.068;12.058;2023-01-10T20:15:54;2.70;;;2.23;;
10041;SDS011;5061;49.068;12.058;2023-01-10T20:19:15;2.20;;;1.93;;
10041;SDS011;5061;49.068;12.058;2023-01-10T20:22:36;2.97;;;2.30;;
10041;SDS011;5061;49.068;12.058;2023-01-10T20:25:57;2.93;;;2.00;;
10041;SDS011;5061;49.068;12.058;2023-01-10T20:29:25;4.00;;;2.30;;
10041;SDS011;5061;49.068;12.058;2023-01-10T20:32:45;2.60;;;2.07;;
10041;SDS011;5061;49.068;12.058;2023-01-10T20:36:07;6.00;;;2.33;;
10041;SDS011;5061;49.068;12.058;2023-01-10T20:39:31;3.80;;;2.40;;
10041;SDS011;5061;49.068;12.058;2023-01-10T20:42:51;4.13;;;2.30;;
10041;SDS011;5061;49.068;12.058;2023-01-10T20:46:13;3.90;;;2.80;;
10041;SDS011;5061;49.068;12.058;2023-01-10T20:49:39;6.33;;;1.93;;
10041;SDS011;5061;49.068;12.058;2023-01-10T20:52:59;3.27;;;2.33;;
10041;SDS011;5061;49.068;12.058;2023-01-10T20:56:23;3.63;;;2.57;;
10041;SDS011;5061;49.068;12.058;2023-01-10T20:59:45;4.73;;;2.83;;
10041;SDS011;5061;49.068;12.058;2023-01-10T21:03:06;7.63;;;3.60;;
10041;SDS011;5061;49.068;12.058;2023-01-10T21:06:27;4.47;;;2.23;;
10041;SDS011;5061;49.068;12.058;2023-01-10T21:09:47;6.87;;;3.13;;
10041;SDS011;5061;49.068;12.058;2023-01-10T21:13:08;4.27;;;2.87;;
10041;SDS011;5061;49.068;12.058;2023-01-10T21:16:28;6.07;;;2.80;;
10041;SDS011;5061;49.068;12.058;2023-01-10T21:19:49;8.47;;;3.40;;
10041;SDS011;5061;49.068;12.058;2023-01-10T21:23:10;4.63;;;2.23;;
10041;SDS011;5061;49.068;12.058;2023-01-10T21:26:32;4.00;;;2.07;;
10041;SDS011;5061;49.068;12.058;2023-01-10T21:29:53;4.40;;;2.13;;
10041;SDS011;5061;49.068;12.058;2023-01-10T21:33:13;2.10;;;1.67;;
10041;SDS011;5061;49.068;12.058;2023-01-10T21:36:34;2.63;;;1.97;;
10041;SDS011;5061;49.068;12.058;2023-01-10T21:39:55;3.50;;;2.10;;
10041;SDS011;5061;49.068;12.058;2023-01-10T21:43:16;3.83;;;2.07;;
10041;SDS011;5061;49.068;12.058;2023-01-10T21:46:36;3.90;;;2.10;;
10041;SDS011;5061;49.068;12.058;2023-01-10T21:49:57;3.73;;;2.93;;
10041;SDS011;5061;49.068;12.058;2023-01-10T21:53:21;5.30;;;2.50;;
10041;SDS011;5061;49.068;12.058;2023-01-10T21:56:41;2.60;;;2.40;;
10041;SDS011;5061;49.068;12.058;2023-01-10T22:00:02;4.97;;;3.40;;
10041;SDS011;5061;49.068;12.058;2023-01-10T22:03:23;4.63;;;2.73;;
10041;SDS011;5061;49.068;12.058;2023-01-10T22:06:44;4.93;;;2.50;;
10041;SDS011;5061;49.068;12.058;2023-01-10T22:10:06;4.20;;;3.13;;
10041;SDS011;5061;49.068;12.058;2023-01-10T22:13:27;5.60;;;3.70;;